Kezdőlap
METAR-TAF:

METAR-TAF

Repülőterek :

Council Bluffs, Iowa, Amerikai Egyesült Államok

földrajzi szélesség: 41-16N, földrajzi hosszúság: 095-46W, magasság: 382 m

Jelenlegi meteorológiai megfigyelések

A jelentés 26 perccel ezelõtt készült, 13:35 UTC
Szélcsend
Hőmérséklet 0°C
Páratartalom 93%
Légköri nyomás 1027 hPa
Látótávolság: 16.1 km
Borult 9000 lábon

METAR: KCBF 041335Z AUTO 00000KT 10SM OVC090 M00/M01 A3034 RMK AO2

Idő: 08:01 (14:01 UTC)


TAF: hiányzik

Meteorológiai megfigyelések és előrejelzések több, mint 4000 repülőtéren (METAR és TAF jelentéseket).

A térképen piros és sárga pontok jelzik az elérhető meteorológiai állomásokat.

Mozgassa az egeret a pont fölött, hogy megjelenjen az állomás neve.

Azután kattintson az időjárási megfigyelések és előrejelzések megtekintéséhez.

A térkép megváltoztatása: kattintson a fekete keresztel jelölt zöld gombra ráközelítéshez, a vonallal jelölt zöld gombra távolításhoz, vagy a zöld nyilakra a szomszédos térképek eléréséhez.


METAR-TAF: